createdAt,value
2022-12-27T00:04:28.205Z,100.00
2022-12-27T00:09:33.321Z,100.00
2022-12-27T00:14:38.459Z,100.00
2022-12-27T00:19:45.950Z,100.00
2022-12-27T00:24:51.049Z,100.00
2022-12-27T00:29:55.933Z,100.00
2022-12-27T00:35:10.458Z,100.00
2022-12-27T00:40:16.241Z,100.00
2022-12-27T00:45:21.783Z,100.00
2022-12-27T00:50:29.763Z,100.00
2022-12-27T00:55:34.746Z,100.00
2022-12-27T01:00:40.148Z,100.00
2022-12-27T01:05:47.907Z,100.00
2022-12-27T01:10:53.440Z,100.00
2022-12-27T01:15:58.428Z,100.00
2022-12-27T01:21:08.198Z,100.00
2022-12-27T01:26:15.259Z,100.00
2022-12-27T01:31:22.409Z,100.00
2022-12-27T01:36:31.934Z,100.00
2022-12-27T01:42:06.620Z,100.00
2022-12-27T01:47:19.079Z,100.00
2022-12-27T01:52:28.553Z,100.00
2022-12-27T01:57:33.782Z,100.00
2022-12-27T02:02:38.993Z,100.00
2022-12-27T02:08:05.528Z,100.00
2022-12-27T02:13:10.657Z,100.00
2022-12-27T02:18:15.868Z,100.00
2022-12-27T02:24:04.607Z,100.00
2022-12-27T02:29:24.306Z,100.00
2022-12-27T02:34:34.627Z,100.00
2022-12-27T02:39:44.270Z,100.00
2022-12-27T02:45:04.515Z,100.00
2022-12-27T02:50:24.581Z,100.00
2022-12-27T02:56:04.183Z,100.00
2022-12-27T03:01:33.735Z,100.00
2022-12-27T03:06:55.715Z,100.00
2022-12-27T03:12:14.331Z,100.00
2022-12-27T03:17:28.515Z,100.00
2022-12-27T03:22:48.227Z,100.00
2022-12-27T03:28:22.738Z,100.00
2022-12-27T03:33:30.904Z,100.00
2022-12-27T03:38:44.413Z,100.00
2022-12-27T03:43:50.762Z,100.00
2022-12-27T03:49:22.920Z,100.00
2022-12-27T03:54:30.909Z,100.00
2022-12-27T03:59:36.151Z,100.00
2022-12-27T04:04:46.050Z,100.00
2022-12-27T04:10:03.445Z,100.00
2022-12-27T04:15:23.643Z,100.00
2022-12-27T04:20:43.640Z,100.00
2022-12-27T04:26:01.221Z,100.00
2022-12-27T04:31:18.637Z,100.00
2022-12-27T04:36:26.279Z,100.00
2022-12-27T04:41:43.769Z,100.00
2022-12-27T04:47:01.984Z,100.00
2022-12-27T04:52:32.660Z,100.00
2022-12-27T04:57:39.998Z,100.00
2022-12-27T05:02:47.941Z,100.00
2022-12-27T05:08:08.656Z,100.00
2022-12-27T05:13:27.245Z,100.00
2022-12-27T05:18:32.206Z,100.00
2022-12-27T05:23:52.631Z,100.00
2022-12-27T05:28:59.483Z,100.00
2022-12-27T05:34:04.499Z,100.00
2022-12-27T05:39:12.095Z,100.00
2022-12-27T05:44:17.095Z,100.00
2022-12-27T05:49:22.816Z,100.00
2022-12-27T05:54:30.567Z,100.00
2022-12-27T05:59:37.888Z,100.00
2022-12-27T06:04:43.171Z,100.00
2022-12-27T06:09:50.840Z,100.00
2022-12-27T06:14:55.834Z,100.00
2022-12-27T06:20:00.776Z,100.00
2022-12-27T06:25:14.023Z,100.00
2022-12-27T06:30:19.531Z,100.00
2022-12-27T06:35:24.516Z,100.00
2022-12-27T06:40:32.449Z,100.00
2022-12-27T06:45:39.634Z,100.00
2022-12-27T06:50:44.674Z,100.00
2022-12-27T06:55:52.736Z,100.00
2022-12-27T07:00:57.784Z,100.00
2022-12-27T07:06:04.916Z,100.00
2022-12-27T07:11:14.917Z,100.00
2022-12-27T07:16:22.450Z,100.00
2022-12-27T07:21:30.162Z,100.00
2022-12-27T07:26:37.754Z,100.00
2022-12-27T07:31:43.439Z,100.00
2022-12-27T07:36:48.458Z,100.00
2022-12-27T07:41:56.055Z,100.00
2022-12-27T07:47:03.387Z,100.00
2022-12-27T07:52:08.448Z,100.00
2022-12-27T07:57:17.137Z,100.00
2022-12-27T08:02:22.249Z,100.00
2022-12-27T08:07:28.541Z,100.00
2022-12-27T08:12:36.269Z,100.00
2022-12-27T08:17:41.205Z,100.00
2022-12-27T08:22:46.148Z,100.00
2022-12-27T08:27:55.556Z,100.00
2022-12-27T08:33:00.677Z,100.00
2022-12-27T08:38:06.845Z,100.00
2022-12-27T08:43:17.079Z,100.00
2022-12-27T08:48:22.207Z,100.00
2022-12-27T08:53:27.288Z,100.00
2022-12-27T08:58:34.883Z,100.00
2022-12-27T09:03:40.266Z,100.00
2022-12-27T09:08:46.628Z,100.00
2022-12-27T09:13:54.567Z,100.00
2022-12-27T09:19:01.601Z,100.00
2022-12-27T09:24:10.822Z,100.00
2022-12-27T09:29:18.629Z,100.00
2022-12-27T09:34:23.706Z,100.00
2022-12-27T09:39:28.803Z,100.00
2022-12-27T09:44:44.312Z,100.00
2022-12-27T09:49:53.765Z,100.00
2022-12-27T09:55:07.185Z,100.00
2022-12-27T10:00:35.151Z,100.00
2022-12-27T10:05:42.421Z,100.00
2022-12-27T10:10:56.019Z,99.92
2022-12-27T10:16:15.130Z,100.00
2022-12-27T10:21:25.288Z,100.00
2022-12-27T10:26:30.640Z,100.00
2022-12-27T10:31:44.293Z,100.00
2022-12-27T10:36:49.315Z,99.62
2022-12-27T10:42:06.023Z,98.83
2022-12-27T10:47:14.988Z,98.92
2022-12-27T10:52:22.532Z,98.60
2022-12-27T10:57:29.849Z,97.58
2022-12-27T11:03:00.604Z,98.54
2022-12-27T11:08:22.166Z,98.33
2022-12-27T11:13:27.042Z,98.52
2022-12-27T11:18:40.128Z,98.04
2022-12-27T11:23:49.907Z,97.63
2022-12-27T11:28:58.785Z,94.70
2022-12-27T11:34:10.002Z,94.33
2022-12-27T11:39:40.950Z,94.32
2022-12-27T11:44:50.417Z,94.72
2022-12-27T11:50:03.913Z,95.19
2022-12-27T11:55:33.983Z,95.38
2022-12-27T12:00:55.633Z,95.79
2022-12-27T12:06:18.087Z,95.87
2022-12-27T12:11:37.628Z,95.16
2022-12-27T12:16:59.916Z,96.85
2022-12-27T12:22:31.751Z,95.78
2022-12-27T12:27:47.534Z,95.98
2022-12-27T12:33:15.148Z,95.92
2022-12-27T12:38:26.447Z,97.10
2022-12-27T12:43:49.414Z,96.83
2022-12-27T12:49:11.338Z,96.06
2022-12-27T12:54:37.962Z,96.86
2022-12-27T13:00:15.374Z,96.99
2022-12-27T13:05:26.613Z,97.30
2022-12-27T13:10:59.565Z,96.88
2022-12-27T13:16:19.785Z,97.52
2022-12-27T13:21:40.197Z,96.40
2022-12-27T13:26:57.512Z,96.33
2022-12-27T13:32:12.894Z,96.33
2022-12-27T13:37:29.056Z,96.57
2022-12-27T13:43:29.656Z,96.51
2022-12-27T13:48:55.116Z,97.57
2022-12-27T13:54:37.196Z,97.64
2022-12-27T13:59:58.402Z,97.77
2022-12-27T14:05:47.920Z,96.58
2022-12-27T14:11:00.681Z,97.58
2022-12-27T14:16:32.408Z,96.59
2022-12-27T14:22:13.594Z,98.43
2022-12-27T14:28:07.070Z,98.31
2022-12-27T14:33:54.906Z,98.97
2022-12-27T14:39:30.592Z,99.46
2022-12-27T14:45:14.533Z,99.95
2022-12-27T14:50:56.518Z,99.06
2022-12-27T14:56:17.428Z,99.38
2022-12-27T15:01:42.509Z,99.64
2022-12-27T15:07:11.759Z,99.57
2022-12-27T15:12:26.581Z,99.52
2022-12-27T15:17:46.210Z,99.82
2022-12-27T15:23:04.747Z,98.64
2022-12-27T15:28:17.495Z,97.72
2022-12-27T15:33:36.149Z,98.69
2022-12-27T15:38:54.727Z,96.58
2022-12-27T15:44:21.976Z,97.13
2022-12-27T15:49:46.586Z,97.60
2022-12-27T15:55:16.104Z,97.41
2022-12-27T16:00:33.546Z,96.92
2022-12-27T16:05:52.293Z,97.57
2022-12-27T16:11:01.369Z,98.47
2022-12-27T16:16:08.002Z,99.17
2022-12-27T16:21:19.071Z,98.62
2022-12-27T16:26:30.173Z,98.62
2022-12-27T16:31:45.161Z,99.01
2022-12-27T16:36:51.595Z,99.36
2022-12-27T16:42:05.724Z,98.86
2022-12-27T16:47:16.758Z,98.75
2022-12-27T16:52:50.634Z,99.43
2022-12-27T16:58:35.837Z,98.89
2022-12-27T17:03:49.435Z,99.42
2022-12-27T17:09:24.113Z,100.00
2022-12-27T17:14:37.994Z,100.00
2022-12-27T17:19:49.047Z,100.00
2022-12-27T17:25:00.400Z,100.00
2022-12-27T17:30:18.439Z,100.00
2022-12-27T17:35:31.931Z,100.00
2022-12-27T17:40:42.623Z,100.00
2022-12-27T17:45:56.534Z,100.00
2022-12-27T17:51:05.548Z,100.00
2022-12-27T17:56:34.875Z,100.00
2022-12-27T18:01:47.415Z,100.00
2022-12-27T18:06:56.549Z,100.00
2022-12-27T18:12:01.752Z,100.00
2022-12-27T18:17:09.321Z,100.00
2022-12-27T18:22:22.008Z,100.00
2022-12-27T18:27:29.923Z,100.00
2022-12-27T18:32:39.338Z,100.00
2022-12-27T18:37:45.573Z,100.00
2022-12-27T18:42:54.622Z,100.00
2022-12-27T18:48:05.040Z,100.00
2022-12-27T18:53:25.257Z,100.00
2022-12-27T18:58:32.201Z,100.00
2022-12-27T19:03:40.993Z,100.00
2022-12-27T19:08:50.759Z,100.00
2022-12-27T19:13:59.493Z,100.00
2022-12-27T19:19:11.877Z,100.00
2022-12-27T19:24:41.626Z,100.00
2022-12-27T19:29:54.577Z,100.00
2022-12-27T19:35:04.453Z,100.00
2022-12-27T19:40:17.248Z,100.00
2022-12-27T19:45:22.807Z,100.00
2022-12-27T19:50:30.570Z,100.00
2022-12-27T19:55:36.665Z,100.00
2022-12-27T20:00:41.950Z,100.00
2022-12-27T20:06:12.777Z,100.00
2022-12-27T20:11:18.590Z,100.00
2022-12-27T20:16:23.763Z,100.00
2022-12-27T20:21:31.839Z,100.00
2022-12-27T20:26:36.821Z,100.00
2022-12-27T20:31:44.906Z,100.00
2022-12-27T20:36:55.599Z,100.00
2022-12-27T20:42:02.793Z,100.00
2022-12-27T20:47:07.863Z,100.00
2022-12-27T20:52:15.896Z,100.00
2022-12-27T20:57:23.069Z,100.00
2022-12-27T21:02:28.202Z,100.00
2022-12-27T21:07:37.808Z,100.00
2022-12-27T21:12:43.181Z,100.00
2022-12-27T21:17:48.160Z,100.00
2022-12-27T21:22:56.262Z,100.00
2022-12-27T21:28:01.298Z,100.00
2022-12-27T21:33:06.209Z,100.00
2022-12-27T21:38:14.565Z,100.00
2022-12-27T21:43:19.986Z,100.00
2022-12-27T21:48:25.620Z,100.00
2022-12-27T21:53:33.085Z,100.00
2022-12-27T21:58:41.384Z,100.00
2022-12-27T22:03:48.760Z,100.00
2022-12-27T22:08:58.792Z,100.00
2022-12-27T22:14:04.735Z,100.00
2022-12-27T22:19:10.564Z,100.00
2022-12-27T22:24:20.111Z,100.00
2022-12-27T22:29:26.737Z,100.00
2022-12-27T22:34:34.274Z,100.00
2022-12-27T22:39:42.088Z,100.00
2022-12-27T22:44:48.044Z,100.00
2022-12-27T22:49:53.904Z,100.00
2022-12-27T22:55:04.295Z,100.00
2022-12-27T23:00:15.999Z,100.00
2022-12-27T23:05:23.218Z,100.00
2022-12-27T23:10:30.765Z,100.00
2022-12-27T23:15:36.649Z,100.00
2022-12-27T23:21:19.294Z,100.00
2022-12-27T23:26:21.449Z,100.00
2022-12-27T23:31:30.137Z,100.00
2022-12-27T23:36:35.976Z,100.00
2022-12-27T23:41:45.601Z,100.00
2022-12-27T23:46:51.024Z,100.00
2022-12-27T23:51:56.333Z,100.00
2022-12-27T23:57:20.495Z,100.00
